TimePDT,TemperatureF,Dew PointF,Humidity,Sea Level PressureIn,VisibilityMPH,Wind Direction,Wind SpeedMPH,Gust SpeedMPH,PrecipitationIn,Events,Conditions,WindDirDegrees,DateUTC
12:52 AM,66.9,55.0,66,29.94,10.0,SE,3.5,-,N/A,,Overcast,130,2013-10-03 07:52:00
1:52 AM,68.0,55.9,65,29.93,10.0,SSE,4.6,-,N/A,,Overcast,150,2013-10-03 08:52:00
2:52 AM,68.0,55.9,65,29.92,10.0,ESE,5.8,-,N/A,,Mostly Cloudy,120,2013-10-03 09:52:00
3:52 AM,68.0,55.9,65,29.92,10.0,SE,3.5,-,N/A,,Mostly Cloudy,140,2013-10-03 10:52:00
4:52 AM,68.0,55.9,65,29.91,10.0,SE,5.8,-,N/A,,Mostly Cloudy,140,2013-10-03 11:52:00
5:52 AM,68.0,55.9,65,29.91,10.0,Calm,Calm,-,N/A,,Mostly Cloudy,0,2013-10-03 12:52:00
6:52 AM,69.1,55.9,63,29.91,10.0,SSE,3.5,-,N/A,,Mostly Cloudy,150,2013-10-03 13:52:00
7:52 AM,70.0,57.0,63,29.92,9.0,Calm,Calm,-,N/A,,Mostly Cloudy,0,2013-10-03 14:52:00
8:52 AM,71.1,57.0,61,29.93,9.0,South,3.5,-,N/A,,Overcast,170,2013-10-03 15:52:00
9:52 AM,73.0,57.0,57,29.93,10.0,South,5.8,-,N/A,,Mostly Cloudy,180,2013-10-03 16:52:00
10:52 AM,75.0,57.0,53,29.93,10.0,South,5.8,-,N/A,,Scattered Clouds,180,2013-10-03 17:52:00
11:52 AM,75.0,59.0,57,29.91,9.0,SW,9.2,-,N/A,,Mostly Cloudy,230,2013-10-03 18:52:00
12:52 PM,75.0,57.9,55,29.89,10.0,WSW,9.2,-,N/A,,Scattered Clouds,250,2013-10-03 19:52:00
1:52 PM,75.0,57.9,55,29.87,10.0,West,9.2,-,N/A,,Scattered Clouds,270,2013-10-03 20:52:00
2:52 PM,75.0,57.9,55,29.86,10.0,West,9.2,-,N/A,,Scattered Clouds,270,2013-10-03 21:52:00
3:52 PM,73.0,57.0,57,29.86,10.0,West,6.9,-,N/A,,Mostly Cloudy,270,2013-10-03 22:52:00
4:52 PM,73.0,57.9,59,29.85,9.0,SW,6.9,-,N/A,,Mostly Cloudy,230,2013-10-03 23:52:00
5:52 PM,70.0,57.0,63,29.85,9.0,WSW,6.9,-,N/A,,Mostly Cloudy,240,2013-10-04 00:52:00
6:00 PM,-9999,-9999,N/A,-9999,-9999.0,North,-9999.0,-,N/A,,Unknown,0,2013-10-04 01:00:00
6:52 PM,70.0,57.0,63,29.85,9.0,WSW,5.8,-,N/A,,Mostly Cloudy,240,2013-10-04 01:52:00
7:52 PM,70.0,55.9,61,29.86,10.0,SW,3.5,-,N/A,,Mostly Cloudy,230,2013-10-04 02:52:00
8:52 PM,70.0,55.9,61,29.87,10.0,South,4.6,-,N/A,,Mostly Cloudy,190,2013-10-04 03:52:00
9:52 PM,70.0,55.9,61,29.87,10.0,South,6.9,-,N/A,,Mostly Cloudy,180,2013-10-04 04:52:00
10:52 PM,68.0,55.9,65,29.88,10.0,South,8.1,-,N/A,,Mostly Cloudy,190,2013-10-04 05:52:00
11:52 PM,69.1,55.9,63,29.88,10.0,South,5.8,-,N/A,,Overcast,180,2013-10-04 06:52:00